Time;durP1;ratioP1;P1;durP2;ratioP2;P2;SDS_P1;SDS_P2;PMS_P1;PMS_P2;Temp;Humidity;BMP_temperature;BMP_pressure;BME280_temperature;BME280_humidity;BME280_pressure;Samples;Min_cycle;Max_cycle;Signal;HPM_P1;HPM_P2
2023/05/21 00:01:27;;;;;;;21.60;19.70;;;;;;;14.88;93.04;101492.81;4877257;29;20508;-68
2023/05/21 00:03:56;;;;;;;19.07;16.73;;;;;;;14.77;93.69;101488.03;4877344;29;20414;-67
2023/05/21 00:06:25;;;;;;;20.10;17.90;;;;;;;14.61;94.68;101486.66;4877266;29;20492;-70
2023/05/21 00:08:55;;;;;;;18.97;17.37;;;;;;;14.73;94.55;101486.81;4877674;29;20440;-70
2023/05/21 00:11:24;;;;;;;18.30;16.60;;;;;;;14.65;95.37;101484.31;4877590;29;20410;-69
2023/05/21 00:13:53;;;;;;;23.93;18.27;;;;;;;14.69;94.99;101477.38;4878022;29;20414;-68
2023/05/21 00:16:23;;;;;;;20.70;18.50;;;;;;;14.64;95.50;101483.47;4877969;29;20727;-68
2023/05/21 00:18:53;;;;;;;21.70;19.40;;;;;;;14.64;95.77;101482.66;4878450;29;20454;-69
2023/05/21 00:21:24;;;;;;;19.87;17.87;;;;;;;14.64;96.27;101471.75;4877990;29;20418;-72
2023/05/21 00:23:55;;;;;;;20.40;18.30;;;;;;;14.72;95.62;101477.78;4875492;29;20956;-69
2023/05/21 00:26:24;;;;;;;19.27;17.37;;;;;;;14.79;94.99;101478.63;4878192;29;20519;-69
2023/05/21 00:28:58;;;;;;;20.03;17.90;;;;;;;14.77;94.85;101468.97;4877794;29;20546;-69
2023/05/21 00:31:27;;;;;;;20.07;18.03;;;;;;;14.78;94.99;101470.66;4876606;29;20453;-69
2023/05/21 00:33:56;;;;;;;18.77;16.90;;;;;;;14.79;95.37;101465.00;4882614;29;20432;-70
2023/05/21 00:36:25;;;;;;;20.70;18.70;;;;;;;14.78;95.54;101462.47;4878138;29;20967;-70
2023/05/21 00:38:55;;;;;;;20.10;18.00;;;;;;;14.83;95.41;101464.53;4874765;29;20468;-71
2023/05/21 00:41:24;;;;;;;20.83;18.63;;;;;;;14.83;95.35;101459.09;4878413;29;20488;-69
2023/05/21 00:43:54;;;;;;;20.47;18.47;;;;;;;14.73;95.50;101465.00;4888685;29;20986;-68
2023/05/21 00:46:23;;;;;;;19.00;17.10;;;;;;;14.74;95.81;101467.53;4876817;29;20482;-69
2023/05/21 00:48:53;;;;;;;19.30;17.40;;;;;;;14.77;95.95;101460.78;4874027;29;20445;-68
2023/05/21 00:51:22;;;;;;;20.27;18.07;;;;;;;14.73;96.03;101456.84;4876955;29;20444;-68
2023/05/21 00:53:52;;;;;;;26.90;18.13;;;;;;;14.81;95.76;101453.03;4875549;29;20945;-70
2023/05/21 00:56:26;;;;;;;19.43;17.40;;;;;;;14.74;95.99;101455.78;4876556;29;20554;-68
2023/05/21 00:58:56;;;;;;;20.23;17.63;;;;;;;14.75;96.37;101446.56;4895578;29;20479;-67
2023/05/21 01:01:25;;;;;;;21.30;17.83;;;;;;;14.79;95.99;101448.63;4881261;29;20769;-69
2023/05/21 01:03:56;;;;;;;19.13;17.10;;;;;;;14.62;96.61;101449.34;4880741;29;21079;-70
2023/05/21 01:06:26;;;;;;;21.70;19.40;;;;;;;14.66;97.32;101445.16;4881314;29;20448;-68
2023/05/21 01:08:57;;;;;;;18.40;16.60;;;;;;;14.55;97.65;101440.34;4878516;29;20474;-68
2023/05/21 01:11:37;;;;;;;24.67;19.27;;;;;;;14.45;98.83;101442.69;4879042;29;20414;-70
2023/05/21 01:14:08;;;;;;;22.10;18.03;;;;;;;14.47;98.79;101443.31;4877487;29;20417;-69
2023/05/21 01:16:39;;;;;;;21.00;18.80;;;;;;;14.43;99.16;101439.34;4879577;29;20427;-67
2023/05/21 01:19:11;;;;;;;19.43;17.60;;;;;;;14.29;99.13;101435.78;4878197;29;20824;-70
2023/05/21 01:21:45;;;;;;;23.63;20.87;;;;;;;14.15;100.00;101429.53;4893959;29;20477;-70
2023/05/21 01:24:15;;;;;;;21.20;19.07;;;;;;;14.31;100.00;101439.97;4875899;29;20422;-70
2023/05/21 01:26:45;;;;;;;22.43;19.40;;;;;;;14.32;100.00;101441.66;4880280;29;20986;-71
2023/05/21 01:29:14;;;;;;;21.77;18.27;;;;;;;14.28;100.00;101432.22;4881120;29;20413;-70
2023/05/21 01:31:56;;;;;;;26.00;21.97;;;;;;;14.27;100.00;101430.56;4878059;29;20440;-69
2023/05/21 01:34:34;;;;;;;27.47;19.83;;;;;;;14.21;100.00;101428.69;4880961;29;20519;-68
2023/05/21 01:37:12;;;;;;;22.60;20.33;;;;;;;14.26;100.00;101423.44;4875820;29;20924;-69
2023/05/21 01:39:49;;;;;;;25.50;21.57;;;;;;;14.31;100.00;101433.69;4880717;29;20447;-67
2023/05/21 01:42:19;;;;;;;24.83;19.40;;;;;;;14.32;100.00;101441.66;4879746;29;20664;-72
2023/05/21 01:44:50;;;;;;;21.97;19.53;;;;;;;14.38;100.00;101431.81;4880770;29;20518;-69
2023/05/21 01:47:23;;;;;;;23.70;21.13;;;;;;;14.24;100.00;101441.88;4880937;29;20471;-68
2023/05/21 01:49:53;;;;;;;22.43;20.00;;;;;;;14.12;100.00;101438.16;4895088;29;20501;-69
2023/05/21 01:52:22;;;;;;;23.57;20.47;;;;;;;14.15;100.00;101428.69;4878621;29;20509;-71
2023/05/21 01:54:53;;;;;;;27.27;19.60;;;;;;;14.19;100.00;101429.94;4880018;29;20456;-69
2023/05/21 01:57:22;;;;;;;25.40;19.63;;;;;;;14.18;100.00;101428.28;4877364;29;20438;-69
2023/05/21 01:59:53;;;;;;;23.33;20.93;;;;;;;14.18;100.00;101420.97;4878554;29;20985;-68
2023/05/21 02:02:22;;;;;;;23.30;20.60;;;;;;;14.17;100.00;101421.16;4878652;29;20447;-69
2023/05/21 02:04:51;;;;;;;23.67;20.90;;;;;;;14.14;100.00;101421.56;4879934;29;20538;-69
2023/05/21 02:07:21;;;;;;;22.40;20.20;;;;;;;14.12;100.00;101424.53;4891954;29;20444;-70
2023/05/21 02:09:51;;;;;;;22.27;19.90;;;;;;;14.14;100.00;101416.97;4880302;29;20417;-69
2023/05/21 02:12:20;;;;;;;23.17;19.80;;;;;;;14.17;100.00;101418.44;4879882;29;20507;-70
2023/05/21 02:14:49;;;;;;;25.57;20.97;;;;;;;14.13;100.00;101419.94;4880103;29;20463;-69
2023/05/21 02:17:18;;;;;;;26.10;20.97;;;;;;;14.04;100.00;101415.75;4893587;29;20997;-69
2023/05/21 02:19:47;;;;;;;22.63;20.30;;;;;;;13.95;100.00;101420.56;4880303;29;20533;-71
2023/05/21 02:22:17;;;;;;;25.90;21.57;;;;;;;13.93;100.00;101418.09;4879888;29;20515;-69
2023/05/21 02:24:46;;;;;;;25.43;22.90;;;;;;;13.91;100.00;101419.31;4892780;29;20568;-69
2023/05/21 02:27:17;;;;;;;26.73;22.80;;;;;;;13.91;100.00;101411.16;4879066;29;20499;-70
2023/05/21 02:29:45;;;;;;;24.33;21.20;;;;;;;13.96;100.00;101414.09;4881111;29;20430;-71
2023/05/21 02:32:15;;;;;;;25.70;23.00;;;;;;;13.88;100.00;101417.03;4879585;29;20439;-69
2023/05/21 02:34:46;;;;;;;29.07;23.73;;;;;;;13.97;100.00;101409.47;4878000;29;20895;-70
2023/05/21 02:37:16;;;;;;;26.50;23.60;;;;;;;14.02;100.00;101406.97;4879372;29;20427;-70
2023/05/21 02:39:45;;;;;;;24.07;21.33;;;;;;;13.93;100.00;101406.34;4878066;29;20841;-70
2023/05/21 02:42:16;;;;;;;27.63;24.40;;;;;;;13.89;100.00;101402.41;4879632;29;20450;-71
2023/05/21 02:44:45;;;;;;;26.83;22.10;;;;;;;13.85;100.00;101401.13;4878559;29;20499;-70
2023/05/21 02:47:14;;;;;;;28.90;24.77;;;;;;;13.90;100.00;101404.88;4878102;29;20467;-70
2023/05/21 02:49:43;;;;;;;25.53;22.80;;;;;;;13.90;100.00;101404.88;4879796;29;20447;-69
2023/05/21 02:52:12;;;;;;;27.43;24.63;;;;;;;14.03;100.00;101409.47;4880053;29;20533;-69
2023/05/21 02:54:42;;;;;;;28.50;23.47;;;;;;;14.02;100.00;101402.38;4881901;29;20561;-70
2023/05/21 02:57:11;;;;;;;24.93;22.37;;;;;;;14.04;100.00;101399.44;4879108;29;20422;-68
2023/05/21 02:59:41;;;;;;;31.03;25.20;;;;;;;13.97;100.00;101399.44;4875110;29;20988;-70
2023/05/21 03:02:10;;;;;;;28.93;24.23;;;;;;;13.96;100.00;101389.59;4877496;29;20434;-69
2023/05/21 03:04:44;;;;;;;33.80;24.80;;;;;;;14.03;100.00;101397.75;4877719;29;20471;-70
2023/05/21 03:07:16;;;;;;;34.27;26.17;;;;;;;14.05;100.00;101393.75;4892874;29;20486;-70
2023/05/21 03:09:46;;;;;;;29.43;26.40;;;;;;;14.11;100.00;101386.63;4891799;29;20423;-70
2023/05/21 03:12:15;;;;;;;28.00;25.03;;;;;;;14.16;100.00;101392.28;4877698;29;20423;-73
2023/05/21 03:14:46;;;;;;;27.63;24.70;;;;;;;14.13;100.00;101392.72;4878810;29;20974;-70
2023/05/21 03:17:15;;;;;;;36.00;28.30;;;;;;;14.19;100.00;101386.41;4878965;29;20414;-70
2023/05/21 03:19:45;;;;;;;27.03;24.23;;;;;;;14.24;100.00;101395.59;4876835;29;20541;-68
2023/05/21 03:22:14;;;;;;;29.03;25.17;;;;;;;14.21;100.00;101392.47;4877678;29;20495;-68
2023/05/21 03:24:43;;;;;;;30.90;27.63;;;;;;;14.27;100.00;101389.75;4876955;29;20862;-70
2023/05/21 03:27:13;;;;;;;29.67;26.30;;;;;;;14.34;100.00;101385.09;4878541;29;20413;-69
2023/05/21 03:29:45;;;;;;;29.33;26.33;;;;;;;14.38;100.00;101395.59;4892912;29;20958;-67
2023/05/21 03:32:14;;;;;;;30.00;27.00;;;;;;;14.46;100.00;101392.63;4877304;29;20503;-69
2023/05/21 03:34:44;;;;;;;28.47;25.53;;;;;;;14.55;100.00;101389.44;4876584;29;20511;-69
2023/05/21 03:37:13;;;;;;;30.80;27.50;;;;;;;14.71;100.00;101393.56;4878832;29;20889;-70
2023/05/21 03:39:43;;;;;;;32.03;26.93;;;;;;;14.85;100.00;101397.06;4881349;29;20504;-67
2023/05/21 03:42:13;;;;;;;31.03;26.70;;;;;;;15.02;100.00;101407.22;4878068;29;20446;-69
2023/05/21 03:44:51;;;;;;;28.50;25.40;;;;;;;15.21;100.00;101406.25;4879912;29;20449;-69
2023/05/21 03:47:47;;;;;;;31.60;25.93;;;;;;;15.42;100.00;101404.22;4877272;29;20435;-70
2023/05/21 03:50:17;;;;;;;29.90;26.07;;;;;;;15.65;97.75;101401.75;4890986;29;20407;-71
2023/05/21 03:52:46;;;;;;;27.53;24.70;;;;;;;16.17;94.95;101403.13;4877806;29;20421;-70
2023/05/21 03:55:15;;;;;;;26.63;23.80;;;;;;;16.30;92.42;101413.06;4894145;29;20475;-69
2023/05/21 03:57:44;;;;;;;27.00;24.20;;;;;;;16.33;91.58;101402.53;4878322;29;20456;-70
2023/05/21 04:00:15;;;;;;;24.03;21.63;;;;;;;16.32;91.83;101403.56;4876837;29;20466;-69
2023/05/21 04:02:44;;;;;;;27.50;24.67;;;;;;;16.32;91.49;101405.47;4878058;29;20436;-68
2023/05/21 04:05:16;;;;;;;27.83;24.73;;;;;;;16.39;90.86;101400.78;4876009;29;21078;-69
2023/05/21 04:07:46;;;;;;;28.33;23.40;;;;;;;16.35;90.54;101413.22;4878204;29;20921;-71
2023/05/21 04:10:15;;;;;;;26.20;23.50;;;;;;;16.28;90.85;101409.72;4876540;29;20419;-69
2023/05/21 04:12:44;;;;;;;27.90;24.73;;;;;;;16.40;91.33;101416.13;4877420;29;20503;-67
2023/05/21 04:15:17;;;;;;;27.93;24.00;;;;;;;17.14;87.68;101409.47;4877697;29;20532;-68
2023/05/21 04:17:46;;;;;;;26.53;24.00;;;;;;;17.79;83.10;101416.66;4892042;29;20447;-69
2023/05/21 04:20:16;;;;;;;28.53;24.17;;;;;;;18.56;78.67;101420.06;4877602;29;20438;-69
2023/05/21 04:22:45;;;;;;;23.80;21.50;;;;;;;18.33;78.37;101414.63;4877276;29;20921;-68
2023/05/21 04:25:19;;;;;;;25.63;22.17;;;;;;;18.55;77.83;101423.06;4891520;29;20756;-68
2023/05/21 04:27:48;;;;;;;25.97;23.47;;;;;;;18.89;75.85;101432.25;4876775;29;20553;-72
2023/05/21 04:30:22;;;;;;;24.93;22.53;;;;;;;18.97;74.71;101434.63;4876513;29;20420;-70
2023/05/21 04:32:53;;;;;;;25.13;22.17;;;;;;;19.08;74.57;101422.75;4893819;29;20508;-69
2023/05/21 04:35:22;;;;;;;25.50;23.00;;;;;;;18.57;76.24;101426.41;4876857;29;20444;-69
2023/05/21 04:37:53;;;;;;;24.03;21.83;;;;;;;18.93;75.62;101425.19;4877958;29;20439;-70
2023/05/21 04:40:23;;;;;;;29.50;24.23;;;;;;;18.79;75.91;101430.13;4889707;29;20954;-68
2023/05/21 04:42:52;;;;;;;24.13;21.67;;;;;;;19.71;72.80;101432.66;4876701;29;20445;-69
2023/05/21 04:45:25;;;;;;;25.30;22.77;;;;;;;19.82;71.14;101426.28;4892026;29;20471;-70
2023/05/21 04:47:59;;;;;;;23.47;21.10;;;;;;;20.30;69.74;101440.22;4876771;29;20565;-70
2023/05/21 04:50:30;;;;;;;25.90;21.33;;;;;;;20.84;66.97;101429.38;4879259;29;20746;-69
2023/05/21 04:52:59;;;;;;;25.07;22.37;;;;;;;21.21;65.44;101426.78;4877487;29;20863;-69
2023/05/21 04:55:28;;;;;;;24.47;21.90;;;;;;;21.41;64.11;101438.00;4891427;29;20559;-71
2023/05/21 04:58:01;;;;;;;24.43;22.07;;;;;;;21.79;63.12;101430.59;4877575;29;20441;-69
2023/05/21 05:00:32;;;;;;;24.47;21.97;;;;;;;21.32;64.24;101431.28;4892072;29;20454;-69
2023/05/21 05:03:01;;;;;;;24.23;21.87;;;;;;;21.40;64.53;101418.97;4892065;29;20463;-72
2023/05/21 05:05:30;;;;;;;23.27;21.00;;;;;;;21.36;64.67;101424.16;4876447;29;20990;-70
2023/05/21 05:08:00;;;;;;;24.53;22.03;;;;;;;21.80;63.09;101418.47;4880228;29;20524;-70
2023/05/21 05:10:29;;;;;;;25.77;23.30;;;;;;;21.91;62.61;101418.31;4877995;29;20428;-70
2023/05/21 05:12:58;;;;;;;23.40;21.30;;;;;;;22.16;61.84;101419.59;4877456;29;20435;-70
2023/05/21 05:15:28;;;;;;;25.07;22.57;;;;;;;21.94;62.20;101423.31;4891930;29;20524;-69
2023/05/21 05:17:59;;;;;;;27.50;24.70;;;;;;;21.89;62.98;101428.75;4891908;29;20448;-68
2023/05/21 05:20:29;;;;;;;25.47;22.97;;;;;;;21.93;62.54;101434.59;4891883;29;20455;-70
2023/05/21 05:22:58;;;;;;;24.63;22.23;;;;;;;21.45;64.45;101427.28;4877467;29;20537;-69
2023/05/21 05:25:27;;;;;;;25.80;23.10;;;;;;;21.18;65.54;101425.38;4876887;29;21036;-70
2023/05/21 05:27:56;;;;;;;24.63;22.23;;;;;;;20.70;67.08;101430.84;4877465;29;20875;-69
2023/05/21 05:30:25;;;;;;;26.20;23.60;;;;;;;20.12;70.15;101437.72;4877315;29;20435;-69
2023/05/21 05:33:00;;;;;;;26.47;23.73;;;;;;;19.81;71.63;101432.84;4875519;29;20966;-71
2023/05/21 05:35:29;;;;;;;27.17;24.47;;;;;;;19.57;72.80;101425.84;4876683;29;20437;-67
2023/05/21 05:37:58;;;;;;;25.80;23.47;;;;;;;19.41;73.71;101431.03;4877238;29;20956;-69
2023/05/21 05:40:27;;;;;;;26.80;24.20;;;;;;;19.42;74.30;101429.13;4875507;29;20478;-69
2023/05/21 05:42:56;;;;;;;28.00;25.23;;;;;;;19.36;74.20;101425.47;4898035;29;20451;-69
2023/05/21 05:45:25;;;;;;;24.47;22.17;;;;;;;19.35;74.62;101433.97;4894467;29;20568;-67
2023/05/21 05:47:57;;;;;;;26.00;23.57;;;;;;;19.36;74.66;101430.13;4894644;29;20962;-70
2023/05/21 05:50:28;;;;;;;27.70;24.10;;;;;;;19.33;74.41;101425.13;4895635;29;20444;-69
2023/05/21 05:52:57;;;;;;;27.50;24.67;;;;;;;19.38;74.75;101423.31;4878937;29;20439;-70
2023/05/21 05:55:26;;;;;;;32.23;23.47;;;;;;;19.45;74.43;101431.44;4882029;29;20818;-68
2023/05/21 05:57:55;;;;;;;25.73;23.03;;;;;;;19.40;74.52;101421.16;4879310;29;20425;-68
2023/05/21 06:00:25;;;;;;;26.10;23.40;;;;;;;19.37;74.84;101421.63;4880705;29;20573;-68
2023/05/21 06:02:54;;;;;;;24.47;22.07;;;;;;;19.49;74.66;101430.69;4878701;29;20434;-68
2023/05/21 06:05:23;;;;;;;25.10;22.80;;;;;;;19.50;74.30;101424.13;4894331;29;20468;-69
2023/05/21 06:07:54;;;;;;;25.73;23.17;;;;;;;19.41;74.35;101416.50;4880271;29;20450;-67
2023/05/21 06:10:23;;;;;;;25.67;23.13;;;;;;;19.44;74.12;101419.63;4884622;29;20429;-70
2023/05/21 06:13:06;;;;;;;27.73;24.80;;;;;;;19.59;73.82;101418.19;4879081;29;20822;-69
2023/05/21 06:15:35;;;;;;;25.63;23.13;;;;;;;19.93;72.38;101425.34;4881933;29;20702;-71
2023/05/21 06:18:05;;;;;;;26.47;23.90;;;;;;;19.98;71.81;101414.44;4882042;29;20874;-69
2023/05/21 06:20:34;;;;;;;26.33;22.63;;;;;;;20.15;70.75;101417.97;4878559;29;20441;-70
2023/05/21 06:23:07;;;;;;;24.87;22.33;;;;;;;20.34;70.47;101410.31;4890478;29;20477;-71
2023/05/21 06:25:37;;;;;;;24.13;21.53;;;;;;;20.47;70.03;101403.63;4894121;29;20900;-70
2023/05/21 06:28:06;;;;;;;22.47;20.47;;;;;;;20.44;69.15;101404.94;4878118;29;20495;-67
2023/05/21 06:30:36;;;;;;;23.87;21.67;;;;;;;20.48;69.16;101406.09;4879275;29;20448;-71
2023/05/21 06:33:05;;;;;;;23.97;21.60;;;;;;;20.38;69.65;101404.03;4889929;29;20507;-71
2023/05/21 06:35:35;;;;;;;24.23;21.83;;;;;;;20.28;68.65;101412.13;4882950;29;20907;-70
2023/05/21 06:38:07;;;;;;;26.33;21.60;;;;;;;20.26;69.34;101406.06;4892791;29;20453;-70
2023/05/21 06:40:36;;;;;;;22.43;20.07;;;;;;;20.43;68.83;101407.97;4879117;29;20475;-70
2023/05/21 06:43:05;;;;;;;22.17;20.03;;;;;;;20.57;68.24;101409.25;4879824;29;20523;-71
2023/05/21 06:45:38;;;;;;;23.07;21.00;;;;;;;20.51;68.07;101407.50;4875357;29;20857;-69
2023/05/21 06:48:33;;;;;;;22.10;19.80;;;;;;;20.61;67.83;101411.22;4880434;29;20519;-71
2023/05/21 06:51:02;;;;;;;22.47;20.27;;;;;;;20.69;67.09;101404.44;4893436;29;20958;-71
2023/05/21 06:53:33;;;;;;;22.87;20.77;;;;;;;20.84;66.87;101410.13;4881564;29;20421;-70
2023/05/21 06:56:02;;;;;;;24.43;20.80;;;;;;;20.70;66.67;101408.84;4880903;29;20810;-70
2023/05/21 06:58:39;;;;;;;23.50;21.10;;;;;;;20.69;66.99;101402.50;4877919;29;20434;-69
2023/05/21 07:01:08;;;;;;;23.70;21.23;;;;;;;21.04;66.35;101402.09;4882411;29;20458;-68
2023/05/21 07:03:38;;;;;;;21.73;19.70;;;;;;;21.14;65.23;101401.41;4879034;29;20414;-69
2023/05/21 07:06:09;;;;;;;23.37;21.17;;;;;;;21.30;65.16;101396.88;4883340;29;20476;-67
2023/05/21 07:08:39;;;;;;;20.37;18.47;;;;;;;21.22;64.72;101398.16;4882686;29;20443;-68
2023/05/21 07:11:08;;;;;;;28.83;20.70;;;;;;;21.07;64.83;101403.47;4882417;29;20616;-69
2023/05/21 07:13:38;;;;;;;21.50;19.50;;;;;;;21.08;65.30;101396.88;4892902;29;20475;-70
2023/05/21 07:16:07;;;;;;;21.30;19.20;;;;;;;20.95;65.46;101406.41;4890897;29;20475;-69
2023/05/21 07:18:40;;;;;;;23.67;21.13;;;;;;;21.13;65.72;101403.31;4877849;29;20447;-68
2023/05/21 07:21:09;;;;;;;20.47;18.47;;;;;;;21.55;63.81;101400.66;4881543;29;20466;-69
2023/05/21 07:23:39;;;;;;;22.37;20.13;;;;;;;21.59;62.97;101406.50;4877474;29;20451;-69
2023/05/21 07:26:10;;;;;;;21.87;19.63;;;;;;;21.37;63.59;101405.72;4880419;29;20470;-69
2023/05/21 07:28:40;;;;;;;21.13;19.33;;;;;;;21.73;63.21;101407.72;4883713;29;20981;-69
2023/05/21 07:31:10;;;;;;;22.50;20.23;;;;;;;22.13;60.88;101401.66;4878207;29;20531;-68
2023/05/21 07:33:44;;;;;;;20.73;18.73;;;;;;;22.14;60.99;101402.50;4876850;29;20826;-69
2023/05/21 07:36:14;;;;;;;24.30;20.20;;;;;;;22.55;60.26;101396.09;4878743;29;20904;-70
2023/05/21 07:38:45;;;;;;;20.40;18.47;;;;;;;22.83;59.43;101398.44;4898258;29;20492;-71
2023/05/21 07:41:14;;;;;;;21.20;19.23;;;;;;;23.08;58.66;101408.72;4888516;29;20529;-69
2023/05/21 07:43:46;;;;;;;19.73;17.80;;;;;;;23.65;56.49;101403.00;4892299;29;20479;-68
2023/05/21 07:46:16;;;;;;;18.40;16.70;;;;;;;23.51;56.26;101392.75;4891828;29;20454;-69
2023/05/21 07:48:47;;;;;;;23.53;18.87;;;;;;;23.27;57.28;101400.72;4877974;29;20458;-69
2023/05/21 07:51:16;;;;;;;22.93;17.07;;;;;;;23.32;56.47;101392.47;4881738;29;20886;-70
2023/05/21 07:53:47;;;;;;;19.57;17.77;;;;;;;23.52;56.04;101392.50;4894688;29;20502;-70
2023/05/21 07:56:19;;;;;;;18.67;16.53;;;;;;;23.52;55.69;101392.50;4876302;29;20449;-70
2023/05/21 07:58:49;;;;;;;22.60;18.07;;;;;;;23.65;55.64;101386.41;4881546;29;20487;-70
2023/05/21 08:01:19;;;;;;;18.90;17.17;;;;;;;23.71;55.30;101390.84;4892048;29;20479;-70
2023/05/21 08:03:48;;;;;;;20.03;17.97;;;;;;;23.73;54.98;101393.31;4891671;29;20473;-69
2023/05/21 08:06:17;;;;;;;17.70;16.20;;;;;;;23.74;54.85;101395.78;4889646;29;20459;-70
2023/05/21 08:08:48;;;;;;;18.17;16.40;;;;;;;23.74;54.67;101392.19;4878910;29;20454;-68
2023/05/21 08:11:17;;;;;;;17.90;16.40;;;;;;;23.79;54.50;101398.56;4873895;29;20440;-69
2023/05/21 08:13:47;;;;;;;18.20;16.40;;;;;;;23.89;54.54;101386.66;4893592;29;20865;-69
2023/05/21 08:16:17;;;;;;;17.83;16.13;;;;;;;24.18;53.58;101395.19;4875869;29;20504;-69
2023/05/21 08:18:46;;;;;;;17.07;15.40;;;;;;;23.98;54.05;101389.69;4878665;29;20534;-70
2023/05/21 08:21:15;;;;;;;18.50;16.90;;;;;;;24.05;53.65;101388.28;4880628;29;20526;-67
2023/05/21 08:23:45;;;;;;;16.63;15.00;;;;;;;24.32;53.12;101393.50;4894553;29;20468;-69
2023/05/21 08:26:16;;;;;;;16.47;14.93;;;;;;;24.05;53.28;101393.00;4896642;29;20471;-69
2023/05/21 08:28:45;;;;;;;19.73;16.87;;;;;;;23.97;53.07;101386.06;4878971;29;20483;-69
2023/05/21 08:31:14;;;;;;;15.33;13.93;;;;;;;24.09;53.26;101388.56;4891972;29;21018;-70
2023/05/21 08:33:51;;;;;;;15.57;14.37;;;;;;;24.61;51.87;101380.66;4875896;29;20450;-69
2023/05/21 08:36:25;;;;;;;16.27;14.83;;;;;;;24.72;51.40;101383.38;4893073;29;20495;-70
2023/05/21 08:39:00;;;;;;;15.97;14.33;;;;;;;24.60;51.94;101381.75;4898289;29;20454;-71
2023/05/21 08:41:37;;;;;;;15.73;14.37;;;;;;;24.71;50.81;101381.69;4892267;29;20471;-70
2023/05/21 08:44:11;;;;;;;17.50;16.00;;;;;;;24.77;50.71;101386.09;4887861;29;20452;-70
2023/05/21 08:46:45;;;;;;;15.20;13.90;;;;;;;24.76;51.02;101384.44;4878569;29;20475;-69
2023/05/21 08:49:16;;;;;;;16.07;14.50;;;;;;;24.86;50.65;101384.41;4878777;29;20441;-70
2023/05/21 08:51:46;;;;;;;15.30;13.97;;;;;;;24.89;50.20;101384.69;4894129;29;20436;-70
2023/05/21 08:54:16;;;;;;;16.03;14.27;;;;;;;24.92;49.76;101380.53;4894005;29;20913;-70
2023/05/21 08:56:48;;;;;;;15.77;14.47;;;;;;;25.04;50.38;101394.84;4891722;29;20538;-70
2023/05/21 08:59:18;;;;;;;15.43;13.90;;;;;;;24.76;50.46;101384.44;4893337;29;20507;-69
2023/05/21 09:01:49;;;;;;;16.23;14.63;;;;;;;24.72;50.54;101384.19;4895482;29;20529;-68
2023/05/21 09:04:24;;;;;;;16.40;13.60;;;;;;;24.88;50.19;101384.97;4876162;29;20703;-68
2023/05/21 09:06:58;;;;;;;16.20;14.70;;;;;;;24.63;50.43;101386.75;4896568;29;20454;-68
2023/05/21 09:09:52;;;;;;;14.33;12.93;;;;;;;24.49;50.80;101382.94;4880567;29;20512;-66
2023/05/21 09:12:23;;;;;;;20.70;14.47;;;;;;;24.86;50.45;101382.47;4873957;29;20499;-67
2023/05/21 09:14:52;;;;;;;16.50;14.80;;;;;;;24.64;50.25;101391.13;4891004;29;20500;-69
2023/05/21 09:17:27;;;;;;;13.60;12.30;;;;;;;24.45;50.82;101387.34;4876793;29;20466;-69
2023/05/21 09:20:09;;;;;;;14.40;13.20;;;;;;;24.75;49.38;101391.09;4880585;29;20921;-67
2023/05/21 09:22:44;;;;;;;18.73;13.53;;;;;;;24.74;49.55;101381.16;4891632;29;20575;-69
2023/05/21 09:25:15;;;;;;;13.70;12.50;;;;;;;24.89;48.89;101383.84;4879198;29;20472;-69
2023/05/21 09:27:46;;;;;;;12.97;11.87;;;;;;;25.06;48.75;101387.91;4881139;29;20450;-70
2023/05/21 09:30:16;;;;;;;14.60;13.30;;;;;;;24.97;48.78;101384.09;4893683;29;20455;-69
2023/05/21 09:32:52;;;;;;;13.20;11.90;;;;;;;25.05;48.84;101382.66;4883139;29;20435;-68
2023/05/21 09:35:21;;;;;;;13.70;12.40;;;;;;;25.43;47.52;101373.50;4880148;29;20451;-66
2023/05/21 09:37:52;;;;;;;14.20;12.90;;;;;;;25.45;48.14;101368.50;4880813;29;20470;-69
2023/05/21 09:40:22;;;;;;;14.57;11.70;;;;;;;25.79;46.67;101359.34;4895070;29;20480;-68
2023/05/21 09:42:54;;;;;;;13.97;12.70;;;;;;;25.56;47.22;101369.28;4883512;29;20519;-68
2023/05/21 09:45:25;;;;;;;13.13;11.93;;;;;;;25.70;47.32;101373.03;4880100;29;20447;-70
2023/05/21 09:47:57;;;;;;;13.73;12.47;;;;;;;26.21;46.36;101373.34;4881183;29;20451;-68
2023/05/21 09:50:27;;;;;;;13.70;12.33;;;;;;;26.19;45.72;101366.41;4893857;29;20450;-69
2023/05/21 09:52:57;;;;;;;13.13;11.93;;;;;;;26.14;46.26;101366.47;4882738;29;20436;-70
2023/05/21 09:55:28;;;;;;;12.80;11.70;;;;;;;25.79;46.36;101370.44;4881442;29;20451;-68
2023/05/21 09:57:59;;;;;;;12.17;11.00;;;;;;;25.90;47.29;101366.47;4883882;29;20440;-69
2023/05/21 10:00:28;;;;;;;13.70;12.30;;;;;;;25.91;46.30;101363.38;4877072;29;20514;-71
2023/05/21 10:03:00;;;;;;;13.00;11.70;;;;;;;25.95;46.26;101364.44;4880584;29;20557;-69
2023/05/21 10:05:30;;;;;;;12.77;11.40;;;;;;;26.08;46.60;101360.16;4882574;29;20558;-69
2023/05/21 10:08:01;;;;;;;13.80;12.00;;;;;;;25.74;46.94;101351.09;4881042;29;20432;-70
2023/05/21 10:10:32;;;;;;;12.13;11.00;;;;;;;25.60;46.68;101350.13;4878221;29;20515;-71
2023/05/21 10:13:06;;;;;;;13.13;11.90;;;;;;;25.69;46.95;101348.38;4879165;29;20559;-66
2023/05/21 10:15:38;;;;;;;12.37;11.27;;;;;;;25.78;46.34;101341.06;4874559;29;20451;-68
2023/05/21 10:18:08;;;;;;;13.43;12.03;;;;;;;25.90;46.28;101341.50;4881829;29;20436;-68
2023/05/21 10:20:38;;;;;;;13.70;12.47;;;;;;;26.20;45.82;101337.53;4886077;29;20974;-71
2023/05/21 10:23:08;;;;;;;13.43;12.13;;;;;;;26.55;44.76;101333.50;4891981;29;20482;-69
2023/05/21 10:25:37;;;;;;;13.73;11.10;;;;;;;26.46;45.08;101338.09;4883414;29;20836;-70
2023/05/21 10:28:07;;;;;;;12.70;11.70;;;;;;;26.30;45.06;101332.72;4895931;29;20460;-68
2023/05/21 10:30:37;;;;;;;13.40;12.00;;;;;;;26.44;45.07;101337.53;4878266;29;20439;-70
2023/05/21 10:33:08;;;;;;;13.03;11.80;;;;;;;26.67;45.11;101331.97;4882416;29;20473;-70
2023/05/21 10:35:38;;;;;;;12.57;11.37;;;;;;;27.08;44.06;101329.41;4881822;29;20467;-69
2023/05/21 10:38:09;;;;;;;15.37;11.77;;;;;;;26.90;44.39;101335.81;4880488;29;20418;-69
2023/05/21 10:40:38;;;;;;;12.87;11.67;;;;;;;26.95;44.33;101332.16;4897598;29;20443;-69
2023/05/21 10:43:42;;;;;;;12.97;11.40;;;;;;;26.86;44.72;101318.13;4895656;29;20422;-69
2023/05/21 10:46:47;;;;;;;12.40;11.13;;;;;;;26.99;44.19;101319.28;4894452;29;20482;-69
2023/05/21 10:49:52;;;;;;;12.40;11.30;;;;;;;27.23;43.90;101323.63;4889014;29;20458;-68
2023/05/21 10:52:35;;;;;;;12.83;11.83;;;;;;;27.20;43.29;101318.69;4890997;29;20838;-71
2023/05/21 10:55:23;;;;;;;12.73;11.63;;;;;;;26.98;43.43;101326.81;4894638;29;20507;-68
2023/05/21 10:58:23;;;;;;;12.67;10.80;;;;;;;27.08;43.47;101309.97;4882708;29;20807;-68
2023/05/21 11:00:55;;;;;;;10.77;9.87;;;;;;;27.01;43.83;101317.88;4874068;29;20473;-69
2023/05/21 11:03:25;;;;;;;12.13;11.00;;;;;;;26.83;43.85;101313.94;4882659;29;20477;-69
2023/05/21 11:05:55;;;;;;;10.40;9.50;;;;;;;26.89;43.60;101313.91;4880696;29;20595;-67
2023/05/21 11:08:27;;;;;;;15.07;12.10;;;;;;;26.82;43.67;101303.13;4886401;29;20495;-71
2023/05/21 11:10:57;;;;;;;11.53;10.47;;;;;;;26.79;43.52;101300.97;4896969;29;20803;-68
2023/05/21 11:13:27;;;;;;;12.10;11.10;;;;;;;26.60;43.95;101305.69;4881312;29;20982;-72
2023/05/21 11:16:14;;;;;;;11.27;10.17;;;;;;;26.68;43.30;101310.56;4882316;29;20487;-70
2023/05/21 11:19:02;;;;;;;11.30;10.40;;;;;;;26.82;42.40;101311.47;4876344;29;20467;-69
2023/05/21 11:21:34;;;;;;;11.83;9.20;;;;;;;26.74;42.68;101295.47;4893909;29;20451;-71
2023/05/21 11:24:07;;;;;;;12.07;10.07;;;;;;;27.16;42.29;101300.94;4880993;29;21069;-69
2023/05/21 11:27:07;;;;;;;12.23;11.03;;;;;;;27.21;42.72;101302.81;4882066;29;20792;-69